createdAt,value
2023-01-20T02:08:49.144Z,95.42
2023-01-20T02:11:16.404Z,93.40
2023-01-20T02:13:43.756Z,93.33
2023-01-20T02:16:16.854Z,93.00
2023-01-20T02:19:16.202Z,92.03
2023-01-20T02:21:55.709Z,91.28
2023-01-20T02:24:56.759Z,91.22
2023-01-20T02:27:42.421Z,90.40
2023-01-20T02:30:35.651Z,89.65
2023-01-20T02:33:24.042Z,89.13
2023-01-20T02:36:04.094Z,88.87
2023-01-20T02:38:31.140Z,88.77
2023-01-20T02:41:08.744Z,88.65
2023-01-20T02:43:45.844Z,88.57
2023-01-20T02:46:26.899Z,88.63
2023-01-20T02:48:58.764Z,88.67
2023-01-20T02:51:27.560Z,88.74
2023-01-20T02:54:01.052Z,88.42
2023-01-20T02:56:29.350Z,88.27
2023-01-20T02:59:01.608Z,88.41
2023-01-20T03:01:34.501Z,88.48
2023-01-20T03:04:02.417Z,88.56
2023-01-20T03:06:32.887Z,88.40
2023-01-20T03:09:01.321Z,88.33
2023-01-20T03:11:29.648Z,88.12
2023-01-20T03:14:17.082Z,88.08
2023-01-20T03:16:48.443Z,87.92
2023-01-20T03:19:15.578Z,87.98
2023-01-20T03:21:42.733Z,88.09
2023-01-20T03:24:09.895Z,88.04
2023-01-20T03:26:37.033Z,87.77
2023-01-20T03:29:08.494Z,87.58
2023-01-20T03:31:43.800Z,87.29
2023-01-20T03:34:13.033Z,87.42
2023-01-20T03:36:40.905Z,87.58
2023-01-20T03:39:08.047Z,87.57
2023-01-20T03:41:56.706Z,87.41
2023-01-20T03:44:39.222Z,87.28
2023-01-20T03:47:11.279Z,87.16
2023-01-20T03:49:47.039Z,87.22
2023-01-20T03:52:19.823Z,86.93
2023-01-20T03:54:57.727Z,86.57
2023-01-20T03:57:32.249Z,86.41
2023-01-20T03:59:59.401Z,86.35
2023-01-20T04:02:26.792Z,86.38
2023-01-20T04:04:54.524Z,86.04
2023-01-20T04:07:23.162Z,85.65
2023-01-20T04:09:52.826Z,85.75
2023-01-20T04:12:19.974Z,85.84
2023-01-20T04:14:47.131Z,85.89
2023-01-20T04:17:14.278Z,85.63
2023-01-20T04:19:41.430Z,85.46
2023-01-20T04:22:28.860Z,85.59
2023-01-20T04:25:11.880Z,85.64
2023-01-20T04:27:39.036Z,85.67
2023-01-20T04:30:07.266Z,85.81
2023-01-20T04:32:34.476Z,85.80
2023-01-20T04:35:01.631Z,85.92
2023-01-20T04:37:28.775Z,85.94
2023-01-20T04:39:55.928Z,86.00
2023-01-20T04:42:23.084Z,86.04
2023-01-20T04:44:50.146Z,86.00
2023-01-20T04:47:17.284Z,86.00
2023-01-20T04:49:44.439Z,86.22
2023-01-20T04:52:11.711Z,86.05
2023-01-20T04:54:38.842Z,85.71
2023-01-20T04:57:05.995Z,85.38
2023-01-20T04:59:33.022Z,85.36
2023-01-20T05:02:00.270Z,85.38
2023-01-20T05:04:27.456Z,85.18
2023-01-20T05:06:54.608Z,84.99
2023-01-20T05:09:21.872Z,84.81
2023-01-20T05:11:49.016Z,84.74
2023-01-20T05:14:16.169Z,84.84
2023-01-20T05:16:43.734Z,84.85
2023-01-20T05:19:12.616Z,84.61
2023-01-20T05:21:39.889Z,84.49
2023-01-20T05:24:07.549Z,84.42
2023-01-20T05:26:34.712Z,84.52
2023-01-20T05:29:02.997Z,84.54
2023-01-20T05:31:30.182Z,84.49
2023-01-20T05:33:57.696Z,84.25
2023-01-20T05:36:24.854Z,84.23
2023-01-20T05:38:52.004Z,84.32
2023-01-20T05:41:19.154Z,84.35
2023-01-20T05:43:46.308Z,84.24
2023-01-20T05:46:13.686Z,84.26
2023-01-20T05:48:41.023Z,84.41
2023-01-20T05:51:08.586Z,84.73
2023-01-20T05:53:35.750Z,84.83
2023-01-20T05:56:03.789Z,84.94
2023-01-20T05:58:30.967Z,84.88
2023-01-20T06:01:12.421Z,84.91
2023-01-20T06:03:39.890Z,85.05
2023-01-20T06:06:09.094Z,85.15
2023-01-20T06:08:36.183Z,84.94
2023-01-20T06:11:03.341Z,84.68
2023-01-20T06:13:30.481Z,84.28
2023-01-20T06:15:58.284Z,84.30
2023-01-20T06:18:25.502Z,84.43
2023-01-20T06:20:52.760Z,84.41
2023-01-20T06:23:19.906Z,84.05
2023-01-20T06:25:47.059Z,84.04
2023-01-20T06:28:14.208Z,84.07
2023-01-20T06:30:43.503Z,84.22
2023-01-20T06:33:11.177Z,84.31
2023-01-20T06:35:38.445Z,84.26
2023-01-20T06:38:05.589Z,84.45
2023-01-20T06:40:33.060Z,84.48
2023-01-20T06:43:00.201Z,84.45
2023-01-20T06:45:27.357Z,84.42
2023-01-20T06:47:54.512Z,84.15
2023-01-20T06:50:21.656Z,84.18
2023-01-20T06:52:48.814Z,84.27
2023-01-20T06:55:16.325Z,84.17
2023-01-20T06:57:43.831Z,83.97
2023-01-20T07:00:11.632Z,83.90
2023-01-20T07:02:38.793Z,83.86
2023-01-20T07:05:08.467Z,83.58
2023-01-20T07:07:35.621Z,83.71
2023-01-20T07:10:03.632Z,83.89
2023-01-20T07:12:30.740Z,83.57
2023-01-20T07:14:57.896Z,83.54
2023-01-20T07:17:25.054Z,83.48
2023-01-20T07:19:52.206Z,83.40
2023-01-20T07:22:19.363Z,83.58
2023-01-20T07:24:46.398Z,83.60
2023-01-20T07:27:15.397Z,83.30
2023-01-20T07:29:42.548Z,83.32
2023-01-20T07:32:09.714Z,83.43
2023-01-20T07:34:36.849Z,83.50
2023-01-20T07:37:04.202Z,83.41
2023-01-20T07:39:31.366Z,83.16
2023-01-20T07:41:58.512Z,83.12
2023-01-20T07:44:25.667Z,83.17
2023-01-20T07:46:52.915Z,83.30
2023-01-20T07:49:20.068Z,83.08
2023-01-20T07:51:47.235Z,82.84
2023-01-20T07:54:14.576Z,82.72
2023-01-20T07:56:41.745Z,82.79
2023-01-20T07:59:10.417Z,82.79
2023-01-20T12:20:54.065Z,87.26
2023-01-20T12:23:46.429Z,84.05
2023-01-20T12:26:15.112Z,83.64
2023-01-20T12:28:43.587Z,83.16
2023-01-20T12:31:10.891Z,82.34
2023-01-20T12:33:48.734Z,81.22
2023-01-20T12:36:38.001Z,80.25
2023-01-20T12:39:33.416Z,79.27
2023-01-20T12:42:55.252Z,78.62
2023-01-20T12:45:28.123Z,78.01
2023-01-20T12:48:08.504Z,77.80
2023-01-20T12:51:14.319Z,77.53
2023-01-20T12:54:01.888Z,77.18
2023-01-20T12:56:40.211Z,76.95
2023-01-20T12:59:17.271Z,76.77
2023-01-20T13:01:48.120Z,76.48
2023-01-20T13:05:11.029Z,76.28
2023-01-20T13:07:53.901Z,75.76
2023-01-20T13:10:36.312Z,75.87
2023-01-20T13:13:12.474Z,75.63
2023-01-20T13:15:42.711Z,75.46
2023-01-20T13:18:24.395Z,75.44
2023-01-20T13:20:51.995Z,75.57
2023-01-20T13:23:23.077Z,75.62
2023-01-20T13:25:50.251Z,75.82
2023-01-20T13:28:27.810Z,75.81
2023-01-20T13:30:57.592Z,75.85
2023-01-20T13:33:34.968Z,76.05
2023-01-20T13:36:23.309Z,76.34
2023-01-20T13:38:51.974Z,76.48
2023-01-20T13:41:56.218Z,76.69
2023-01-20T13:44:41.439Z,76.83
2023-01-20T13:47:10.292Z,76.91
2023-01-20T13:49:49.832Z,77.00
2023-01-20T13:52:51.087Z,76.99
2023-01-20T13:55:30.625Z,77.22
2023-01-20T13:57:57.880Z,77.60
2023-01-20T14:00:25.032Z,77.65
2023-01-20T14:02:53.346Z,77.70
2023-01-20T14:05:28.857Z,77.93
2023-01-20T14:07:56.671Z,78.15
2023-01-20T14:10:23.995Z,78.20
2023-01-20T14:12:51.134Z,78.33
2023-01-20T14:15:48.971Z,78.42
2023-01-20T14:18:17.084Z,78.62
2023-01-20T14:20:46.594Z,78.62
2023-01-20T14:23:30.544Z,78.69
2023-01-20T14:26:03.000Z,78.86
2023-01-20T14:28:30.276Z,78.93
2023-01-20T14:31:18.398Z,78.89
2023-01-20T14:33:58.667Z,78.85
2023-01-20T14:36:26.793Z,78.87
2023-01-20T14:38:58.504Z,79.03
2023-01-20T14:41:28.212Z,79.03
2023-01-20T14:43:55.673Z,78.95
2023-01-20T14:46:24.173Z,78.96
2023-01-20T14:48:52.158Z,79.06
2023-01-20T14:51:19.377Z,79.12
2023-01-20T14:53:47.351Z,79.06
2023-01-20T14:56:19.657Z,79.18
2023-01-20T14:58:49.093Z,79.43
2023-01-20T15:01:23.944Z,79.55
2023-01-20T15:03:58.284Z,79.69
2023-01-20T15:06:25.870Z,79.84
2023-01-20T15:09:05.995Z,80.00
2023-01-20T15:11:34.595Z,80.02
2023-01-20T15:14:01.860Z,79.99
2023-01-20T15:16:46.989Z,79.87
2023-01-20T15:19:17.665Z,79.90
2023-01-20T15:21:51.455Z,79.97
2023-01-20T15:24:23.624Z,79.86
2023-01-20T15:26:52.558Z,79.72
2023-01-20T15:29:39.934Z,79.61
2023-01-20T15:32:11.015Z,79.61
2023-01-20T15:34:38.127Z,79.75
2023-01-20T15:37:09.909Z,79.62
2023-01-20T15:39:37.044Z,79.52
2023-01-20T15:42:04.187Z,79.25
2023-01-20T20:43:03.470Z,79.53
2023-01-20T20:45:30.520Z,77.01
2023-01-20T20:47:57.476Z,76.91
2023-01-20T20:50:25.027Z,76.86
2023-01-20T20:52:52.280Z,76.69
2023-01-20T20:55:19.332Z,76.66
2023-01-20T20:57:46.383Z,76.65
2023-01-20T21:00:15.383Z,76.69
2023-01-20T21:02:43.600Z,76.76
2023-01-20T21:05:10.908Z,76.84
2023-01-20T21:07:39.594Z,76.86
2023-01-20T21:10:07.144Z,77.02
2023-01-20T21:12:34.612Z,77.22
2023-01-20T21:15:01.616Z,77.27
2023-01-20T21:17:28.915Z,77.35
2023-01-20T21:19:55.968Z,77.34
2023-01-20T21:22:23.119Z,77.27
2023-01-20T21:24:50.372Z,77.43
2023-01-20T21:27:17.328Z,77.41
2023-01-20T21:29:46.002Z,77.51
2023-01-20T21:32:12.946Z,77.36
2023-01-20T21:34:39.999Z,77.38
2023-01-20T21:37:08.074Z,77.29
2023-01-20T21:39:35.126Z,77.45
2023-01-20T21:42:05.451Z,77.34
2023-01-20T21:44:35.782Z,77.40
2023-01-20T21:47:10.199Z,77.40
2023-01-20T21:49:58.446Z,77.51
2023-01-20T21:52:41.567Z,77.51
2023-01-20T21:55:10.671Z,77.69
2023-01-20T21:57:38.637Z,77.66
2023-01-20T22:00:08.013Z,77.87
2023-01-20T22:02:44.753Z,78.10
2023-01-20T22:05:12.279Z,78.30
2023-01-20T22:07:39.204Z,78.40
2023-01-20T22:10:07.315Z,78.76
2023-01-20T22:12:35.180Z,78.92
2023-01-20T22:15:02.961Z,79.11
2023-01-20T22:17:32.030Z,79.11
2023-01-20T22:19:59.192Z,79.39
2023-01-20T22:22:26.139Z,79.64
2023-01-20T22:24:53.393Z,79.70
2023-01-20T22:27:20.439Z,79.95
2023-01-20T22:29:47.586Z,80.13
2023-01-20T22:32:14.540Z,80.33
2023-01-20T22:34:41.481Z,80.29
2023-01-20T22:37:09.358Z,80.42
2023-01-20T22:39:37.197Z,80.51
2023-01-20T22:42:04.371Z,80.62
2023-01-20T22:44:31.728Z,80.95
2023-01-20T22:46:59.187Z,80.92
2023-01-20T22:49:26.442Z,80.96
2023-01-20T22:51:54.670Z,81.00
2023-01-20T22:54:22.703Z,80.90
2023-01-20T22:56:49.946Z,81.05
2023-01-20T22:59:16.906Z,81.26
2023-01-20T23:01:43.946Z,81.30
2023-01-20T23:04:11.217Z,81.53
2023-01-20T23:06:38.864Z,81.29
2023-01-20T23:09:07.903Z,81.58
2023-01-20T23:11:35.853Z,81.57
2023-01-20T23:14:03.294Z,81.75
2023-01-20T23:16:30.899Z,81.73
2023-01-20T23:18:58.007Z,81.68
2023-01-20T23:21:25.467Z,81.81
2023-01-20T23:23:55.383Z,81.85
2023-01-20T23:26:24.576Z,81.87
2023-01-20T23:28:53.168Z,82.03
2023-01-20T23:31:20.593Z,81.95
2023-01-20T23:33:47.691Z,82.03
2023-01-20T23:36:23.952Z,82.03
2023-01-20T23:38:52.944Z,81.91
2023-01-20T23:41:20.401Z,82.08
2023-01-20T23:43:48.270Z,82.12
2023-01-20T23:46:15.728Z,82.19
2023-01-20T23:48:44.777Z,82.33
2023-01-20T23:51:11.856Z,82.10
2023-01-20T23:53:40.054Z,81.96
2023-01-20T23:56:18.401Z,82.19
2023-01-20T23:58:45.633Z,82.33
